createdAt,value
2023-05-16T00:00:22.128Z,1.65
2023-05-16T00:02:48.808Z,1.55
2023-05-16T00:05:15.375Z,1.70
2023-05-16T00:07:41.714Z,1.59
2023-05-16T00:10:08.109Z,1.62
2023-05-16T00:12:34.468Z,1.53
2023-05-16T00:15:00.844Z,1.62
2023-05-16T00:17:27.356Z,1.65
2023-05-16T00:19:53.728Z,1.59
2023-05-16T00:22:20.101Z,1.42
2023-05-16T00:24:46.469Z,1.53
2023-05-16T00:27:12.849Z,1.56
2023-05-16T00:29:39.228Z,1.57
2023-05-16T00:32:05.735Z,1.54
2023-05-16T00:34:32.267Z,1.58
2023-05-16T00:36:58.657Z,1.56
2023-05-16T00:39:25.056Z,1.62
2023-05-16T00:41:51.509Z,1.50
2023-05-16T00:44:17.860Z,1.60
2023-05-16T00:46:44.305Z,1.56
2023-05-16T00:49:10.726Z,1.47
2023-05-16T00:51:37.111Z,1.54
2023-05-16T00:54:03.527Z,1.56
2023-05-16T00:56:29.908Z,1.60
2023-05-16T00:58:56.283Z,1.74
2023-05-16T01:01:22.702Z,1.58
2023-05-16T01:03:49.244Z,1.56
2023-05-16T01:06:15.720Z,1.71
2023-05-16T01:08:42.054Z,1.61
2023-05-16T01:11:08.464Z,1.60
2023-05-16T01:13:34.817Z,1.59
2023-05-16T01:16:01.244Z,1.76
2023-05-16T01:18:27.658Z,1.77
2023-05-16T01:20:54.066Z,1.64
2023-05-16T01:23:20.429Z,1.62
2023-05-16T01:25:46.852Z,1.82
2023-05-16T01:28:13.289Z,1.81
2023-05-16T01:30:39.646Z,1.69
2023-05-16T01:33:06.056Z,1.66
2023-05-16T01:35:34.640Z,1.65
2023-05-16T01:38:01.001Z,1.73
2023-05-16T01:40:27.412Z,1.73
2023-05-16T01:42:53.918Z,1.60
2023-05-16T01:45:20.269Z,1.52
2023-05-16T01:47:46.674Z,1.59
2023-05-16T01:50:13.143Z,1.81
2023-05-16T01:52:39.690Z,1.64
2023-05-16T01:55:06.512Z,1.50
2023-05-16T01:57:32.926Z,1.80
2023-05-16T01:59:59.324Z,1.66
2023-05-16T02:02:25.779Z,1.87
2023-05-16T02:04:52.235Z,1.74
2023-05-16T02:07:18.582Z,1.69
2023-05-16T02:09:45.012Z,1.69
2023-05-16T02:12:11.390Z,1.68
2023-05-16T02:14:37.757Z,1.50
2023-05-16T02:17:04.216Z,1.65
2023-05-16T02:19:30.704Z,1.61
2023-05-16T02:21:57.137Z,1.74
2023-05-16T02:24:23.536Z,1.85
2023-05-16T02:26:49.897Z,1.84
2023-05-16T02:29:16.281Z,1.71
2023-05-16T02:31:42.770Z,1.73
2023-05-16T02:34:09.201Z,1.76
2023-05-16T02:36:35.533Z,1.51
2023-05-16T02:39:01.920Z,1.78
2023-05-16T02:41:28.261Z,1.71
2023-05-16T02:43:54.604Z,1.58
2023-05-16T02:46:21.040Z,1.93
2023-05-16T02:48:47.477Z,1.68
2023-05-16T02:51:13.874Z,1.65
2023-05-16T02:53:40.290Z,1.75
2023-05-16T02:56:06.715Z,1.67
2023-05-16T02:58:33.099Z,1.74
2023-05-16T03:00:59.505Z,1.65
2023-05-16T03:03:25.942Z,1.77
2023-05-16T03:05:52.372Z,1.94
2023-05-16T03:08:18.757Z,1.90
2023-05-16T03:10:45.141Z,1.80
2023-05-16T03:13:11.504Z,1.60
2023-05-16T03:15:37.923Z,1.68
2023-05-16T03:18:04.314Z,1.83
2023-05-16T03:20:30.777Z,1.79
2023-05-16T03:22:57.151Z,1.69
2023-05-16T03:25:23.611Z,1.77
2023-05-16T03:27:49.997Z,1.63
2023-05-16T03:30:16.402Z,1.64
2023-05-16T03:32:42.892Z,1.67
2023-05-16T03:35:09.319Z,1.64
2023-05-16T03:37:36.089Z,1.66
2023-05-16T03:40:02.449Z,1.88
2023-05-16T03:42:28.804Z,1.86
2023-05-16T03:44:55.177Z,1.82
2023-05-16T03:47:21.540Z,1.83
2023-05-16T03:49:47.895Z,1.89
2023-05-16T03:52:14.304Z,1.97
2023-05-16T03:54:40.897Z,1.76
2023-05-16T03:57:07.316Z,1.84
2023-05-16T03:59:33.768Z,1.71
2023-05-16T04:02:00.209Z,1.73
2023-05-16T04:04:26.584Z,1.99
2023-05-16T04:06:52.991Z,1.82
2023-05-16T04:09:19.340Z,1.76
2023-05-16T04:11:45.692Z,1.74
2023-05-16T04:14:12.159Z,1.86
2023-05-16T04:16:38.714Z,1.75
2023-05-16T04:19:05.163Z,1.86
2023-05-16T04:21:31.711Z,2.03
2023-05-16T04:23:58.046Z,2.07
2023-05-16T04:26:24.442Z,1.88
2023-05-16T04:28:50.914Z,1.77
2023-05-16T04:31:17.335Z,1.89
2023-05-16T04:33:43.700Z,1.80
2023-05-16T04:36:10.092Z,1.77
2023-05-16T04:38:36.452Z,1.69
2023-05-16T04:41:02.820Z,1.83
2023-05-16T04:43:29.222Z,1.76
2023-05-16T04:45:55.659Z,1.86
2023-05-16T04:48:22.021Z,1.88
2023-05-16T04:50:48.492Z,2.00
2023-05-16T04:53:14.844Z,1.70
2023-05-16T04:55:41.206Z,1.70
2023-05-16T04:58:07.649Z,1.94
2023-05-16T05:00:34.001Z,2.01
2023-05-16T05:03:00.482Z,1.83
2023-05-16T05:05:27.439Z,1.94
2023-05-16T05:07:54.117Z,1.82
2023-05-16T05:10:20.541Z,1.82
2023-05-16T05:12:46.991Z,1.96
2023-05-16T05:15:13.366Z,1.80
2023-05-16T05:17:39.937Z,1.87
2023-05-16T05:20:06.442Z,1.97
2023-05-16T05:22:32.801Z,1.99
2023-05-16T05:24:59.146Z,2.11
2023-05-16T05:27:25.573Z,1.89
2023-05-16T05:29:51.917Z,1.83
2023-05-16T05:32:18.285Z,1.82
2023-05-16T05:34:44.767Z,1.89
2023-05-16T05:37:11.201Z,1.84
2023-05-16T05:39:37.619Z,1.98
2023-05-16T05:42:04.052Z,2.02
2023-05-16T05:44:30.405Z,2.18
2023-05-16T05:46:56.737Z,2.11
2023-05-16T05:49:23.141Z,2.24
2023-05-16T05:51:49.518Z,2.05
2023-05-16T05:54:15.863Z,2.04
2023-05-16T05:56:42.429Z,2.23
2023-05-16T05:59:08.960Z,2.60
2023-05-16T06:01:35.369Z,2.81
2023-05-16T06:04:02.321Z,2.61
2023-05-16T06:06:28.771Z,2.42
2023-05-16T06:08:55.392Z,2.65
2023-05-16T06:11:21.767Z,2.62
2023-05-16T06:13:48.116Z,2.36
2023-05-16T06:16:14.513Z,2.23
2023-05-16T06:18:41.001Z,2.43
2023-05-16T06:21:07.481Z,2.62
2023-05-16T06:23:33.905Z,2.73
2023-05-16T06:26:00.285Z,2.87
2023-05-16T06:28:26.720Z,2.93
2023-05-16T06:30:53.088Z,2.72
2023-05-16T06:33:19.466Z,2.64
2023-05-16T06:35:45.879Z,3.05
2023-05-16T06:38:12.566Z,2.79
2023-05-16T06:40:39.115Z,2.71
2023-05-16T06:43:05.511Z,2.93
2023-05-16T06:45:32.002Z,3.10
2023-05-16T06:47:58.568Z,3.33
2023-05-16T06:50:24.981Z,2.89
2023-05-16T06:52:51.425Z,2.96
2023-05-16T06:55:17.968Z,3.22
2023-05-16T06:57:44.391Z,3.07
2023-05-16T07:00:10.807Z,3.12
2023-05-16T07:02:37.409Z,3.04
2023-05-16T07:05:03.893Z,3.03
2023-05-16T07:07:30.791Z,3.15
2023-05-16T07:09:57.432Z,2.89
2023-05-16T07:12:23.825Z,2.89
2023-05-16T07:14:50.342Z,2.96
2023-05-16T07:17:16.840Z,3.03
2023-05-16T07:19:43.258Z,3.32
2023-05-16T07:22:09.684Z,3.33
2023-05-16T07:24:36.126Z,3.11
2023-05-16T07:27:02.627Z,3.28
2023-05-16T07:29:29.063Z,3.24
2023-05-16T07:31:55.536Z,3.57
2023-05-16T07:34:21.978Z,3.94
2023-05-16T07:36:48.444Z,3.62
2023-05-16T07:39:15.055Z,3.65
2023-05-16T07:41:41.532Z,3.55
2023-05-16T07:44:07.969Z,3.86
2023-05-16T07:46:34.579Z,3.60
2023-05-16T07:49:01.109Z,3.32
2023-05-16T07:51:27.516Z,3.74
2023-05-16T07:53:53.997Z,3.66
2023-05-16T07:56:20.552Z,3.57
2023-05-16T07:58:47.038Z,4.40
2023-05-16T08:01:13.498Z,9.58
2023-05-16T08:03:40.236Z,6.80
2023-05-16T08:06:06.824Z,17.57
2023-05-16T08:08:33.528Z,21.61
2023-05-16T08:10:59.949Z,10.86
2023-05-16T08:13:26.391Z,7.06
2023-05-16T08:15:52.952Z,17.69
2023-05-16T08:18:22.270Z,28.96
2023-05-16T08:20:48.969Z,71.03
2023-05-16T08:23:15.462Z,32.96
2023-05-16T08:25:41.868Z,16.09
2023-05-16T08:28:08.364Z,10.57
2023-05-16T08:30:34.957Z,9.09
2023-05-16T08:33:01.623Z,8.49
2023-05-16T08:35:28.540Z,8.21
2023-05-16T08:37:55.185Z,8.21
2023-05-16T08:40:21.876Z,7.57
2023-05-16T08:42:48.472Z,7.20
2023-05-16T08:45:14.951Z,7.22
2023-05-16T08:47:41.670Z,6.64
2023-05-16T08:50:08.302Z,6.30
2023-05-16T08:52:34.848Z,6.29
2023-05-16T08:55:10.173Z,5.95
2023-05-16T08:57:37.751Z,5.70
2023-05-16T09:00:04.179Z,5.49
2023-05-16T09:02:30.661Z,5.50
2023-05-16T09:04:57.131Z,4.92
2023-05-16T09:07:23.552Z,4.97
2023-05-16T09:09:49.965Z,5.20
2023-05-16T09:12:16.524Z,5.34
2023-05-16T09:14:42.983Z,5.51
2023-05-16T09:17:12.103Z,5.09
2023-05-16T09:19:39.122Z,5.29
2023-05-16T09:22:05.639Z,4.89
2023-05-16T09:24:32.150Z,4.96
2023-05-16T09:26:58.587Z,4.62
2023-05-16T09:29:24.996Z,4.64
2023-05-16T09:31:51.447Z,4.81
2023-05-16T09:34:17.930Z,4.26
2023-05-16T09:36:44.325Z,4.15
2023-05-16T09:39:10.748Z,4.27
2023-05-16T09:41:37.231Z,4.19
2023-05-16T09:44:03.753Z,3.90
2023-05-16T09:46:30.304Z,3.92
2023-05-16T09:48:56.825Z,3.73
2023-05-16T09:51:23.342Z,3.52
2023-05-16T09:53:49.804Z,3.30
2023-05-16T09:56:16.254Z,3.66
2023-05-16T09:58:43.717Z,3.33
2023-05-16T10:01:10.273Z,2.87
2023-05-16T10:03:36.842Z,2.90
2023-05-16T10:06:03.411Z,3.16
2023-05-16T10:08:30.287Z,3.28
2023-05-16T10:10:56.778Z,3.43
2023-05-16T10:13:23.221Z,2.91
2023-05-16T10:15:49.731Z,3.14
2023-05-16T10:18:16.213Z,3.05
2023-05-16T10:20:42.772Z,3.25
2023-05-16T10:23:09.229Z,3.13
2023-05-16T10:25:35.644Z,2.99
2023-05-16T10:28:02.130Z,2.71
2023-05-16T10:30:28.626Z,2.85
2023-05-16T10:32:55.090Z,2.66
2023-05-16T10:35:21.615Z,2.88
2023-05-16T10:37:48.020Z,2.84
2023-05-16T10:40:14.415Z,2.50
2023-05-16T10:42:40.856Z,2.70
2023-05-16T10:45:07.283Z,2.64
2023-05-16T10:47:33.974Z,2.48
2023-05-16T10:50:00.409Z,2.44
2023-05-16T10:52:26.820Z,2.25
2023-05-16T10:54:53.285Z,2.12
2023-05-16T10:57:19.683Z,2.14
2023-05-16T10:59:46.120Z,2.13
2023-05-16T11:02:12.663Z,2.29
2023-05-16T11:04:39.082Z,2.05
2023-05-16T11:07:05.480Z,2.07
2023-05-16T11:09:31.992Z,2.17
2023-05-16T11:11:58.493Z,2.18
2023-05-16T11:14:24.957Z,2.68
2023-05-16T11:16:51.481Z,2.52
2023-05-16T11:19:18.023Z,2.49
2023-05-16T11:21:44.475Z,2.11
2023-05-16T11:24:10.957Z,2.36
2023-05-16T11:26:37.390Z,2.00
2023-05-16T11:29:03.835Z,1.99
2023-05-16T11:31:30.314Z,1.89
2023-05-16T11:33:56.720Z,2.14
2023-05-16T11:36:23.119Z,1.84
2023-05-16T11:38:49.557Z,1.99
2023-05-16T11:41:16.035Z,2.34
2023-05-16T11:43:42.456Z,2.39
2023-05-16T11:46:10.063Z,2.08
2023-05-16T11:48:37.035Z,1.88
2023-05-16T11:51:03.529Z,1.87
2023-05-16T11:53:30.047Z,2.00
2023-05-16T11:55:56.890Z,2.03
2023-05-16T11:58:23.552Z,2.08
2023-05-16T12:00:50.029Z,1.85
2023-05-16T12:03:16.798Z,1.80
2023-05-16T12:05:43.480Z,1.85
2023-05-16T12:08:10.134Z,1.78
2023-05-16T12:10:36.694Z,1.92
2023-05-16T12:13:03.154Z,1.82
2023-05-16T12:15:29.882Z,1.98
2023-05-16T12:17:56.567Z,1.78
2023-05-16T12:20:23.036Z,1.88
2023-05-16T12:22:49.477Z,1.87
2023-05-16T12:25:16.026Z,1.86
2023-05-16T12:27:43.994Z,1.96
2023-05-16T12:30:12.247Z,2.22
2023-05-16T12:32:38.984Z,2.19
2023-05-16T12:35:05.587Z,1.95
2023-05-16T12:37:32.071Z,2.22
2023-05-16T12:39:58.470Z,1.98
2023-05-16T12:42:24.893Z,2.20
2023-05-16T12:44:51.399Z,2.06
2023-05-16T12:47:17.797Z,2.22
2023-05-16T12:49:47.439Z,2.30
2023-05-16T12:52:13.961Z,2.05
2023-05-16T12:54:40.435Z,2.17
2023-05-16T12:57:06.840Z,2.31
2023-05-16T12:59:33.282Z,2.32
2023-05-16T13:01:59.807Z,2.21
2023-05-16T13:04:26.465Z,2.18
2023-05-16T13:09:22.278Z,2.00
2023-05-16T13:11:48.837Z,2.16
2023-05-16T13:14:15.372Z,2.13
2023-05-16T13:16:41.959Z,2.07
2023-05-16T13:19:08.661Z,1.86
2023-05-16T13:21:35.101Z,1.88
2023-05-16T13:24:01.554Z,2.19
2023-05-16T13:26:28.249Z,2.03
2023-05-16T13:28:54.656Z,2.09
2023-05-16T13:31:21.124Z,1.89
2023-05-16T13:33:47.586Z,2.06
2023-05-16T13:36:14.128Z,1.81
2023-05-16T13:38:40.667Z,1.91
2023-05-16T13:41:07.100Z,5.43
2023-05-16T13:43:33.602Z,3.68
2023-05-16T13:46:00.171Z,2.32
2023-05-16T13:48:26.741Z,1.97
2023-05-16T13:50:53.235Z,2.58
2023-05-16T13:53:19.898Z,2.61
2023-05-16T13:55:46.332Z,2.18
2023-05-16T13:58:13.181Z,2.19
2023-05-16T14:00:44.957Z,2.10
2023-05-16T14:03:12.637Z,2.14
2023-05-16T14:05:39.501Z,2.13
2023-05-16T14:08:05.997Z,2.07
2023-05-16T14:10:32.443Z,2.22
2023-05-16T14:12:58.897Z,2.20
2023-05-16T14:15:25.482Z,2.06
2023-05-16T14:17:52.011Z,1.97
2023-05-16T14:20:18.505Z,2.11
2023-05-16T14:22:44.936Z,2.29
2023-05-16T14:25:11.750Z,1.98
2023-05-16T14:27:38.230Z,2.18
2023-05-16T14:30:04.634Z,2.18
2023-05-16T14:32:31.281Z,1.88
2023-05-16T14:34:57.873Z,2.06
2023-05-16T14:37:24.393Z,2.00
2023-05-16T14:39:50.876Z,2.01
2023-05-16T14:42:17.278Z,1.89
2023-05-16T14:44:43.695Z,1.90
2023-05-16T14:47:10.460Z,2.05
2023-05-16T14:49:36.961Z,2.23
2023-05-16T14:52:03.385Z,2.11
2023-05-16T14:54:29.805Z,2.12
2023-05-16T14:56:56.219Z,2.00
2023-05-16T14:59:25.440Z,2.29
2023-05-16T15:01:51.959Z,2.41
2023-05-16T15:04:18.468Z,2.66
2023-05-16T15:06:44.862Z,2.17
2023-05-16T15:09:11.405Z,2.65
2023-05-16T15:11:37.812Z,2.27
2023-05-16T15:14:04.275Z,2.31
2023-05-16T15:16:30.760Z,2.48
2023-05-16T15:18:57.310Z,2.42
2023-05-16T15:21:23.753Z,2.43
2023-05-16T15:23:50.651Z,2.70
2023-05-16T15:26:17.130Z,2.40
2023-05-16T15:28:43.530Z,2.29
2023-05-16T15:31:09.973Z,2.31
2023-05-16T15:33:36.400Z,2.41
2023-05-16T15:36:02.824Z,2.50
2023-05-16T15:38:29.330Z,2.45
2023-05-16T15:41:12.241Z,2.53
2023-05-16T15:43:42.331Z,2.66
2023-05-16T15:46:08.797Z,2.83
2023-05-16T15:48:35.373Z,2.51
2023-05-16T15:51:01.806Z,2.58
2023-05-16T15:53:28.210Z,2.69
2023-05-16T15:55:54.644Z,2.27
2023-05-16T15:58:22.792Z,2.31
2023-05-16T16:00:49.322Z,2.44
2023-05-16T16:03:15.827Z,2.58
2023-05-16T16:05:42.391Z,2.28
2023-05-16T16:08:08.802Z,2.21
2023-05-16T16:10:35.232Z,2.23
2023-05-16T16:13:01.774Z,2.35
2023-05-16T16:15:30.350Z,2.22
2023-05-16T16:17:59.320Z,2.30
2023-05-16T16:20:25.766Z,2.13
2023-05-16T16:22:52.331Z,2.03
2023-05-16T16:25:18.797Z,1.99
2023-05-16T16:27:45.573Z,1.79
2023-05-16T16:30:11.979Z,1.82
2023-05-16T16:32:38.688Z,1.96
2023-05-16T16:35:05.521Z,1.88
2023-05-16T16:37:31.919Z,1.84
2023-05-16T16:39:58.381Z,1.93
2023-05-16T16:42:24.859Z,1.89
2023-05-16T16:44:51.324Z,1.99
2023-05-16T16:47:17.878Z,1.72
2023-05-16T16:49:44.291Z,1.78
2023-05-16T16:52:10.715Z,1.88
2023-05-16T16:54:37.167Z,1.80
2023-05-16T16:57:03.812Z,1.80
2023-05-16T16:59:30.214Z,1.76
2023-05-16T17:01:56.695Z,1.68
2023-05-16T17:04:23.107Z,1.76
2023-05-16T17:06:49.491Z,1.74
2023-05-16T17:09:15.928Z,1.63
2023-05-16T17:11:42.398Z,1.80
2023-05-16T17:14:08.827Z,2.05
2023-05-16T17:16:35.351Z,1.79
2023-05-16T17:19:01.849Z,2.05
2023-05-16T17:21:28.331Z,1.87
2023-05-16T17:23:54.790Z,1.68
2023-05-16T17:26:21.199Z,1.74
2023-05-16T17:28:47.608Z,1.75
2023-05-16T17:31:14.066Z,1.85
2023-05-16T17:33:40.736Z,1.76
2023-05-16T17:36:07.135Z,1.73
2023-05-16T17:38:33.541Z,1.85
2023-05-16T17:40:59.955Z,1.83
2023-05-16T17:43:26.422Z,1.96
2023-05-16T17:45:52.929Z,1.98
2023-05-16T17:48:19.328Z,2.10
2023-05-16T17:50:45.736Z,2.11
2023-05-16T17:53:12.219Z,1.98
2023-05-16T17:55:38.738Z,1.87
2023-05-16T17:58:05.143Z,1.80
2023-05-16T18:00:31.611Z,1.68
2023-05-16T18:02:58.075Z,1.80
2023-05-16T18:05:24.561Z,1.73
2023-05-16T18:07:51.054Z,1.60
2023-05-16T18:10:17.470Z,1.58
2023-05-16T18:12:43.880Z,1.68
2023-05-16T18:15:10.300Z,1.71
2023-05-16T18:17:36.802Z,1.62
2023-05-16T18:20:03.347Z,1.47
2023-05-16T18:22:29.843Z,1.64
2023-05-16T18:24:56.271Z,1.55
2023-05-16T18:27:22.690Z,1.54
2023-05-16T18:29:49.136Z,1.52
2023-05-16T18:32:15.568Z,1.46
2023-05-16T18:34:41.970Z,1.47
2023-05-16T18:37:08.434Z,1.47
2023-05-16T18:39:34.822Z,1.60
2023-05-16T18:42:01.254Z,1.58
2023-05-16T18:44:27.755Z,1.57
2023-05-16T18:46:54.186Z,1.35
2023-05-16T18:49:20.705Z,1.43
2023-05-16T18:51:47.187Z,1.36
2023-05-16T18:54:13.627Z,1.51
2023-05-16T18:56:40.084Z,1.62
2023-05-16T18:59:06.631Z,1.45
2023-05-16T19:01:33.056Z,1.49
2023-05-16T19:03:59.584Z,1.38
2023-05-16T19:06:26.053Z,1.41
2023-05-16T19:08:52.570Z,1.57
2023-05-16T19:11:19.026Z,1.65
2023-05-16T19:13:45.475Z,1.63
2023-05-16T19:16:11.960Z,1.47
2023-05-16T19:18:38.908Z,1.55
2023-05-16T19:21:05.562Z,1.45
2023-05-16T19:23:32.012Z,1.30
2023-05-16T19:25:58.416Z,1.30
2023-05-16T19:28:24.826Z,1.46
2023-05-16T19:30:51.418Z,1.45
2023-05-16T19:33:20.121Z,1.29
2023-05-16T19:35:46.528Z,1.68
2023-05-16T19:38:12.989Z,1.40
2023-05-16T19:40:39.490Z,1.44
2023-05-16T19:43:05.954Z,1.46
2023-05-16T19:45:32.410Z,1.55
2023-05-16T19:47:58.907Z,1.49
2023-05-16T19:50:25.546Z,1.45
2023-05-16T19:52:51.956Z,1.39
2023-05-16T19:55:18.360Z,1.43
2023-05-16T19:57:44.803Z,1.34
2023-05-16T20:00:11.248Z,1.34
2023-05-16T20:02:37.711Z,1.41
2023-05-16T20:05:04.217Z,1.35
2023-05-16T20:07:30.705Z,1.56
2023-05-16T20:09:57.176Z,1.27
2023-05-16T20:12:23.657Z,1.44
2023-05-16T20:14:50.190Z,1.38
2023-05-16T20:17:16.581Z,1.42
2023-05-16T20:19:43.121Z,1.30
2023-05-16T20:22:09.723Z,1.37
2023-05-16T20:24:36.234Z,1.22
2023-05-16T20:27:02.686Z,1.37
2023-05-16T20:29:29.079Z,1.26
2023-05-16T20:31:55.463Z,1.44
2023-05-16T20:34:21.884Z,1.32
2023-05-16T20:36:48.357Z,1.42
2023-05-16T20:39:14.793Z,1.36
2023-05-16T20:41:41.273Z,1.26
2023-05-16T20:44:07.645Z,1.17
2023-05-16T20:46:34.100Z,1.25
2023-05-16T20:49:00.624Z,1.18
2023-05-16T20:51:27.096Z,1.38
2023-05-16T20:53:53.520Z,1.16
2023-05-16T20:56:19.993Z,1.08
2023-05-16T20:58:46.412Z,1.13
2023-05-16T21:01:12.855Z,1.23
2023-05-16T21:03:39.337Z,1.28
2023-05-16T21:06:05.768Z,1.28
2023-05-16T21:08:32.227Z,1.28
2023-05-16T21:10:58.696Z,1.19
2023-05-16T21:13:25.121Z,1.06
2023-05-16T21:15:51.544Z,1.21
2023-05-16T21:18:18.102Z,1.18
2023-05-16T21:20:44.634Z,1.25
2023-05-16T21:23:11.033Z,1.05
2023-05-16T21:25:37.450Z,1.35
2023-05-16T21:28:03.828Z,1.22
2023-05-16T21:30:30.293Z,1.10
2023-05-16T21:32:57.077Z,1.14
2023-05-16T21:35:23.474Z,1.16
2023-05-16T21:37:49.906Z,1.18
2023-05-16T21:40:16.287Z,1.08
2023-05-16T21:42:42.759Z,1.11
2023-05-16T21:45:09.216Z,1.39
2023-05-16T21:47:35.723Z,1.17
2023-05-16T21:50:02.186Z,1.22
2023-05-16T21:52:28.666Z,1.15
2023-05-16T21:54:55.128Z,1.19
2023-05-16T21:57:21.564Z,1.24
2023-05-16T21:59:48.002Z,1.26
2023-05-16T22:02:14.414Z,1.13
2023-05-16T22:04:40.847Z,1.12
2023-05-16T22:07:07.674Z,1.19
2023-05-16T22:09:34.049Z,1.24
2023-05-16T22:12:00.447Z,1.06
2023-05-16T22:14:26.928Z,1.04
2023-05-16T22:16:53.418Z,1.19
2023-05-16T22:19:19.858Z,1.12
2023-05-16T22:21:46.299Z,1.24
2023-05-16T22:24:12.803Z,1.12
2023-05-16T22:26:39.292Z,1.11
2023-05-16T22:29:05.725Z,1.07
2023-05-16T22:31:32.128Z,1.03
2023-05-16T22:33:58.555Z,1.10
2023-05-16T22:36:25.021Z,1.05
2023-05-16T22:38:51.394Z,0.97
2023-05-16T22:41:17.790Z,1.02
2023-05-16T22:43:44.221Z,1.02
2023-05-16T22:46:10.631Z,1.19
2023-05-16T22:48:37.116Z,1.15
2023-05-16T22:51:03.657Z,1.04
2023-05-16T22:53:30.056Z,1.04
2023-05-16T22:55:56.479Z,1.08
2023-05-16T22:58:22.939Z,1.08
2023-05-16T23:00:49.391Z,1.07
2023-05-16T23:03:15.912Z,1.12
2023-05-16T23:05:42.454Z,1.15
2023-05-16T23:08:08.872Z,1.12
2023-05-16T23:10:35.360Z,1.13
2023-05-16T23:13:01.917Z,1.10
2023-05-16T23:15:28.576Z,1.06
2023-05-16T23:17:55.224Z,0.98
2023-05-16T23:20:21.693Z,1.10
2023-05-16T23:22:48.071Z,0.95
2023-05-16T23:25:14.488Z,0.99
2023-05-16T23:27:40.961Z,1.00
2023-05-16T23:30:07.371Z,1.07
2023-05-16T23:32:33.828Z,1.05
2023-05-16T23:35:00.334Z,0.97
2023-05-16T23:37:26.763Z,0.99
2023-05-16T23:39:53.213Z,1.03
2023-05-16T23:42:19.631Z,0.90
2023-05-16T23:44:46.143Z,0.86
2023-05-16T23:47:12.597Z,0.88
2023-05-16T23:49:39.019Z,0.97
2023-05-16T23:52:05.497Z,0.95
2023-05-16T23:54:31.948Z,1.06
2023-05-16T23:56:58.361Z,1.01
2023-05-16T23:59:24.870Z,0.98
